sensor_id;sensor_type;location;lat;lon;timestamp;P1;durP1;ratioP1;P2;durP2;ratioP2
51288;SDS011;37372;52.294;5.152;2022-09-27T00:01:54;5.63;;;0.90;;
51288;SDS011;37372;52.294;5.152;2022-09-27T00:04:19;6.05;;;1.15;;
51288;SDS011;37372;52.294;5.152;2022-09-27T00:06:45;5.45;;;1.13;;
51288;SDS011;37372;52.294;5.152;2022-09-27T00:09:10;4.40;;;0.88;;
51288;SDS011;37372;52.294;5.152;2022-09-27T00:11:37;4.25;;;0.50;;
51288;SDS011;37372;52.294;5.152;2022-09-27T00:14:04;2.67;;;0.50;;
51288;SDS011;37372;52.294;5.152;2022-09-27T00:16:31;6.43;;;0.40;;
51288;SDS011;37372;52.294;5.152;2022-09-27T00:19:05;4.00;;;0.45;;
51288;SDS011;37372;52.294;5.152;2022-09-27T00:21:32;4.28;;;0.40;;
51288;SDS011;37372;52.294;5.152;2022-09-27T00:23:58;2.60;;;0.50;;
51288;SDS011;37372;52.294;5.152;2022-09-27T00:26:24;4.72;;;0.60;;
51288;SDS011;37372;52.294;5.152;2022-09-27T00:28:50;4.10;;;0.50;;
51288;SDS011;37372;52.294;5.152;2022-09-27T00:31:16;3.60;;;0.22;;
51288;SDS011;37372;52.294;5.152;2022-09-27T00:33:45;5.68;;;1.02;;
51288;SDS011;37372;52.294;5.152;2022-09-27T00:36:12;0.98;;;0.30;;
51288;SDS011;37372;52.294;5.152;2022-09-27T00:38:39;4.80;;;0.88;;
51288;SDS011;37372;52.294;5.152;2022-09-27T00:41:05;4.18;;;0.63;;
51288;SDS011;37372;52.294;5.152;2022-09-27T00:43:41;3.10;;;0.35;;
51288;SDS011;37372;52.294;5.152;2022-09-27T00:46:35;2.13;;;0.40;;
51288;SDS011;37372;52.294;5.152;2022-09-27T00:51:53;2.13;;;0.50;;
51288;SDS011;37372;52.294;5.152;2022-09-27T00:54:24;6.55;;;0.98;;
51288;SDS011;37372;52.294;5.152;2022-09-27T00:56:52;4.47;;;0.52;;
51288;SDS011;37372;52.294;5.152;2022-09-27T00:59:25;3.67;;;0.47;;
51288;SDS011;37372;52.294;5.152;2022-09-27T01:01:53;4.57;;;0.68;;
51288;SDS011;37372;52.294;5.152;2022-09-27T01:04:23;6.90;;;1.25;;
51288;SDS011;37372;52.294;5.152;2022-09-27T01:06:52;4.72;;;0.60;;
51288;SDS011;37372;52.294;5.152;2022-09-27T01:09:18;3.95;;;0.60;;
51288;SDS011;37372;52.294;5.152;2022-09-27T01:14:36;2.30;;;0.43;;
51288;SDS011;37372;52.294;5.152;2022-09-27T01:22:55;3.80;;;0.60;;
51288;SDS011;37372;52.294;5.152;2022-09-27T01:40:17;8.75;;;1.10;;
51288;SDS011;37372;52.294;5.152;2022-09-27T01:42:48;10.68;;;1.00;;
51288;SDS011;37372;52.294;5.152;2022-09-27T01:45:22;7.38;;;0.93;;
51288;SDS011;37372;52.294;5.152;2022-09-27T01:47:50;3.83;;;0.60;;
51288;SDS011;37372;52.294;5.152;2022-09-27T01:50:24;6.75;;;1.05;;
51288;SDS011;37372;52.294;5.152;2022-09-27T01:52:59;5.97;;;1.20;;
51288;SDS011;37372;52.294;5.152;2022-09-27T01:55:32;6.35;;;0.82;;
51288;SDS011;37372;52.294;5.152;2022-09-27T01:58:18;4.60;;;0.95;;
51288;SDS011;37372;52.294;5.152;2022-09-27T02:00:50;9.82;;;2.22;;
51288;SDS011;37372;52.294;5.152;2022-09-27T02:03:19;7.70;;;1.08;;
51288;SDS011;37372;52.294;5.152;2022-09-27T02:11:05;9.57;;;1.10;;
51288;SDS011;37372;52.294;5.152;2022-09-27T02:16:27;6.40;;;1.13;;
51288;SDS011;37372;52.294;5.152;2022-09-27T02:19:08;9.77;;;1.17;;
51288;SDS011;37372;52.294;5.152;2022-09-27T02:21:37;10.15;;;1.10;;
51288;SDS011;37372;52.294;5.152;2022-09-27T02:24:34;9.95;;;1.20;;
51288;SDS011;37372;52.294;5.152;2022-09-27T02:27:11;12.45;;;1.30;;
51288;SDS011;37372;52.294;5.152;2022-09-27T02:29:44;10.13;;;1.20;;
51288;SDS011;37372;52.294;5.152;2022-09-27T02:32:15;9.00;;;1.15;;
51288;SDS011;37372;52.294;5.152;2022-09-27T02:34:40;7.85;;;0.90;;
51288;SDS011;37372;52.294;5.152;2022-09-27T02:37:07;8.82;;;1.10;;
51288;SDS011;37372;52.294;5.152;2022-09-27T02:39:33;6.60;;;1.15;;
51288;SDS011;37372;52.294;5.152;2022-09-27T02:41:58;3.97;;;0.95;;
51288;SDS011;37372;52.294;5.152;2022-09-27T02:44:24;6.32;;;0.90;;
51288;SDS011;37372;52.294;5.152;2022-09-27T02:52:42;6.05;;;1.05;;
51288;SDS011;37372;52.294;5.152;2022-09-27T02:55:50;5.95;;;1.10;;
51288;SDS011;37372;52.294;5.152;2022-09-27T03:06:32;11.15;;;1.10;;
51288;SDS011;37372;52.294;5.152;2022-09-27T03:08:59;5.57;;;1.02;;
51288;SDS011;37372;52.294;5.152;2022-09-27T03:11:24;4.18;;;0.80;;
51288;SDS011;37372;52.294;5.152;2022-09-27T03:13:49;6.50;;;0.82;;
51288;SDS011;37372;52.294;5.152;2022-09-27T03:16:15;5.78;;;0.80;;
51288;SDS011;37372;52.294;5.152;2022-09-27T03:18:41;4.53;;;0.82;;
51288;SDS011;37372;52.294;5.152;2022-09-27T03:21:06;5.78;;;0.77;;
51288;SDS011;37372;52.294;5.152;2022-09-27T03:23:32;10.85;;;1.20;;
51288;SDS011;37372;52.294;5.152;2022-09-27T03:25:58;10.00;;;0.90;;
51288;SDS011;37372;52.294;5.152;2022-09-27T03:28:23;7.28;;;1.00;;
51288;SDS011;37372;52.294;5.152;2022-09-27T03:30:49;10.40;;;1.40;;
51288;SDS011;37372;52.294;5.152;2022-09-27T03:33:15;5.80;;;1.05;;
51288;SDS011;37372;52.294;5.152;2022-09-27T03:35:40;3.08;;;0.60;;
51288;SDS011;37372;52.294;5.152;2022-09-27T03:38:07;8.32;;;1.20;;
51288;SDS011;37372;52.294;5.152;2022-09-27T03:40:33;4.97;;;1.52;;
51288;SDS011;37372;52.294;5.152;2022-09-27T03:42:59;7.47;;;0.85;;
51288;SDS011;37372;52.294;5.152;2022-09-27T03:45:24;5.45;;;0.70;;
51288;SDS011;37372;52.294;5.152;2022-09-27T03:47:50;5.32;;;0.57;;
51288;SDS011;37372;52.294;5.152;2022-09-27T03:50:15;5.40;;;0.75;;
51288;SDS011;37372;52.294;5.152;2022-09-27T03:52:41;9.15;;;0.75;;
51288;SDS011;37372;52.294;5.152;2022-09-27T03:55:08;3.63;;;0.45;;
51288;SDS011;37372;52.294;5.152;2022-09-27T03:57:34;5.70;;;0.60;;
51288;SDS011;37372;52.294;5.152;2022-09-27T04:00:00;5.50;;;0.52;;
51288;SDS011;37372;52.294;5.152;2022-09-27T04:02:26;2.90;;;0.43;;
51288;SDS011;37372;52.294;5.152;2022-09-27T04:04:51;7.25;;;0.55;;
51288;SDS011;37372;52.294;5.152;2022-09-27T04:07:17;8.85;;;1.42;;
51288;SDS011;37372;52.294;5.152;2022-09-27T04:09:42;5.78;;;0.68;;
51288;SDS011;37372;52.294;5.152;2022-09-27T04:12:10;9.32;;;1.23;;
51288;SDS011;37372;52.294;5.152;2022-09-27T04:14:36;6.32;;;0.60;;
51288;SDS011;37372;52.294;5.152;2022-09-27T04:17:01;3.30;;;0.47;;
51288;SDS011;37372;52.294;5.152;2022-09-27T04:19:27;1.50;;;0.30;;
51288;SDS011;37372;52.294;5.152;2022-09-27T04:21:52;2.47;;;0.45;;
51288;SDS011;37372;52.294;5.152;2022-09-27T04:24:18;7.05;;;1.17;;
51288;SDS011;37372;52.294;5.152;2022-09-27T04:26:43;4.70;;;0.70;;
51288;SDS011;37372;52.294;5.152;2022-09-27T04:29:09;6.68;;;0.70;;
51288;SDS011;37372;52.294;5.152;2022-09-27T04:31:35;3.45;;;0.80;;
51288;SDS011;37372;52.294;5.152;2022-09-27T04:34:03;5.28;;;0.70;;
51288;SDS011;37372;52.294;5.152;2022-09-27T04:36:29;1.77;;;0.50;;
51288;SDS011;37372;52.294;5.152;2022-09-27T04:38:55;2.15;;;0.50;;
51288;SDS011;37372;52.294;5.152;2022-09-27T04:41:22;4.22;;;0.75;;
51288;SDS011;37372;52.294;5.152;2022-09-27T04:43:50;8.18;;;1.05;;
51288;SDS011;37372;52.294;5.152;2022-09-27T04:46:16;5.22;;;0.70;;
51288;SDS011;37372;52.294;5.152;2022-09-27T04:48:43;9.40;;;0.80;;
51288;SDS011;37372;52.294;5.152;2022-09-27T04:51:08;7.47;;;0.88;;
51288;SDS011;37372;52.294;5.152;2022-09-27T04:53:34;3.80;;;0.50;;
51288;SDS011;37372;52.294;5.152;2022-09-27T04:56:00;3.67;;;0.60;;
51288;SDS011;37372;52.294;5.152;2022-09-27T04:58:30;3.80;;;0.52;;
51288;SDS011;37372;52.294;5.152;2022-09-27T05:00:55;6.93;;;0.90;;
51288;SDS011;37372;52.294;5.152;2022-09-27T05:03:21;2.15;;;0.40;;
51288;SDS011;37372;52.294;5.152;2022-09-27T05:05:47;4.70;;;0.63;;
51288;SDS011;37372;52.294;5.152;2022-09-27T05:08:12;4.55;;;0.70;;
51288;SDS011;37372;52.294;5.152;2022-09-27T05:10:38;5.60;;;0.88;;
51288;SDS011;37372;52.294;5.152;2022-09-27T05:13:03;1.20;;;0.40;;
51288;SDS011;37372;52.294;5.152;2022-09-27T05:15:30;3.30;;;0.60;;
51288;SDS011;37372;52.294;5.152;2022-09-27T05:17:56;3.83;;;0.50;;
51288;SDS011;37372;52.294;5.152;2022-09-27T05:20:22;3.22;;;0.50;;
51288;SDS011;37372;52.294;5.152;2022-09-27T05:22:49;4.97;;;0.70;;
51288;SDS011;37372;52.294;5.152;2022-09-27T05:25:15;5.70;;;0.85;;
51288;SDS011;37372;52.294;5.152;2022-09-27T05:27:41;4.18;;;0.55;;
51288;SDS011;37372;52.294;5.152;2022-09-27T05:30:06;4.82;;;1.15;;
51288;SDS011;37372;52.294;5.152;2022-09-27T05:32:32;4.00;;;0.50;;
51288;SDS011;37372;52.294;5.152;2022-09-27T05:34:58;3.83;;;0.60;;
51288;SDS011;37372;52.294;5.152;2022-09-27T05:37:24;3.42;;;0.80;;
51288;SDS011;37372;52.294;5.152;2022-09-27T05:39:50;8.88;;;1.13;;
51288;SDS011;37372;52.294;5.152;2022-09-27T05:42:15;3.88;;;0.65;;
51288;SDS011;37372;52.294;5.152;2022-09-27T05:44:41;3.15;;;0.60;;
51288;SDS011;37372;52.294;5.152;2022-09-27T05:47:11;4.15;;;0.65;;
51288;SDS011;37372;52.294;5.152;2022-09-27T05:49:36;7.30;;;0.80;;
51288;SDS011;37372;52.294;5.152;2022-09-27T05:52:03;4.95;;;0.95;;
51288;SDS011;37372;52.294;5.152;2022-09-27T05:54:28;5.35;;;0.80;;
51288;SDS011;37372;52.294;5.152;2022-09-27T05:56:54;5.35;;;0.80;;
51288;SDS011;37372;52.294;5.152;2022-09-27T05:59:23;5.13;;;1.70;;
51288;SDS011;37372;52.294;5.152;2022-09-27T06:01:50;5.70;;;1.00;;
51288;SDS011;37372;52.294;5.152;2022-09-27T06:04:15;7.05;;;0.90;;
51288;SDS011;37372;52.294;5.152;2022-09-27T06:06:41;6.65;;;1.10;;
51288;SDS011;37372;52.294;5.152;2022-09-27T06:09:10;7.05;;;1.20;;
51288;SDS011;37372;52.294;5.152;2022-09-27T06:11:36;6.13;;;1.40;;
51288;SDS011;37372;52.294;5.152;2022-09-27T06:14:02;4.32;;;1.17;;
51288;SDS011;37372;52.294;5.152;2022-09-27T06:16:28;7.00;;;1.20;;
51288;SDS011;37372;52.294;5.152;2022-09-27T06:18:54;6.22;;;1.27;;
51288;SDS011;37372;52.294;5.152;2022-09-27T06:21:19;11.05;;;1.15;;
51288;SDS011;37372;52.294;5.152;2022-09-27T06:23:44;5.82;;;1.20;;
51288;SDS011;37372;52.294;5.152;2022-09-27T06:26:10;6.85;;;1.20;;
51288;SDS011;37372;52.294;5.152;2022-09-27T06:28:36;7.40;;;1.25;;
51288;SDS011;37372;52.294;5.152;2022-09-27T06:31:03;8.77;;;1.27;;
51288;SDS011;37372;52.294;5.152;2022-09-27T06:33:31;4.03;;;1.45;;
51288;SDS011;37372;52.294;5.152;2022-09-27T06:35:59;6.93;;;1.50;;
51288;SDS011;37372;52.294;5.152;2022-09-27T06:38:28;6.03;;;1.60;;
51288;SDS011;37372;52.294;5.152;2022-09-27T06:40:54;6.72;;;1.20;;
51288;SDS011;37372;52.294;5.152;2022-09-27T06:43:22;2.80;;;0.73;;
51288;SDS011;37372;52.294;5.152;2022-09-27T06:45:47;4.35;;;1.00;;
51288;SDS011;37372;52.294;5.152;2022-09-27T06:48:14;8.38;;;1.20;;
51288;SDS011;37372;52.294;5.152;2022-09-27T06:50:41;6.30;;;1.20;;
51288;SDS011;37372;52.294;5.152;2022-09-27T06:53:11;5.70;;;1.10;;
51288;SDS011;37372;52.294;5.152;2022-09-27T06:55:38;9.23;;;1.73;;
51288;SDS011;37372;52.294;5.152;2022-09-27T06:58:04;7.50;;;1.30;;
51288;SDS011;37372;52.294;5.152;2022-09-27T07:00:49;6.53;;;0.90;;
51288;SDS011;37372;52.294;5.152;2022-09-27T07:03:18;2.40;;;0.90;;
51288;SDS011;37372;52.294;5.152;2022-09-27T07:05:57;4.38;;;0.85;;
51288;SDS011;37372;52.294;5.152;2022-09-27T07:08:24;15.65;;;1.77;;
51288;SDS011;37372;52.294;5.152;2022-09-27T07:10:52;5.03;;;1.40;;
51288;SDS011;37372;52.294;5.152;2022-09-27T07:13:19;3.08;;;0.98;;
51288;SDS011;37372;52.294;5.152;2022-09-27T07:15:45;3.95;;;1.00;;
51288;SDS011;37372;52.294;5.152;2022-09-27T07:18:11;4.63;;;1.60;;
51288;SDS011;37372;52.294;5.152;2022-09-27T07:20:36;6.40;;;1.45;;
51288;SDS011;37372;52.294;5.152;2022-09-27T07:23:03;4.65;;;2.45;;
51288;SDS011;37372;52.294;5.152;2022-09-27T07:25:29;9.05;;;3.20;;
51288;SDS011;37372;52.294;5.152;2022-09-27T07:27:59;6.85;;;2.95;;
51288;SDS011;37372;52.294;5.152;2022-09-27T07:30:26;14.35;;;3.97;;
51288;SDS011;37372;52.294;5.152;2022-09-27T07:32:58;3.20;;;1.27;;
51288;SDS011;37372;52.294;5.152;2022-09-27T07:35:24;3.25;;;0.80;;
51288;SDS011;37372;52.294;5.152;2022-09-27T07:37:51;13.95;;;1.48;;
51288;SDS011;37372;52.294;5.152;2022-09-27T07:40:17;5.03;;;0.70;;
51288;SDS011;37372;52.294;5.152;2022-09-27T07:42:43;5.32;;;1.45;;
51288;SDS011;37372;52.294;5.152;2022-09-27T07:45:09;4.85;;;1.10;;
51288;SDS011;37372;52.294;5.152;2022-09-27T07:47:36;10.30;;;2.00;;
51288;SDS011;37372;52.294;5.152;2022-09-27T07:50:07;9.60;;;1.55;;
51288;SDS011;37372;52.294;5.152;2022-09-27T07:52:39;5.55;;;1.33;;
51288;SDS011;37372;52.294;5.152;2022-09-27T07:55:06;4.68;;;1.02;;
51288;SDS011;37372;52.294;5.152;2022-09-27T07:57:33;6.70;;;1.17;;
51288;SDS011;37372;52.294;5.152;2022-09-27T07:59:58;6.82;;;1.65;;
51288;SDS011;37372;52.294;5.152;2022-09-27T08:02:24;6.25;;;1.20;;
51288;SDS011;37372;52.294;5.152;2022-09-27T08:04:49;6.10;;;1.35;;
51288;SDS011;37372;52.294;5.152;2022-09-27T08:07:15;7.68;;;1.23;;
51288;SDS011;37372;52.294;5.152;2022-09-27T08:09:40;5.85;;;1.20;;
51288;SDS011;37372;52.294;5.152;2022-09-27T08:12:06;6.30;;;0.90;;
51288;SDS011;37372;52.294;5.152;2022-09-27T08:14:32;9.68;;;1.58;;
51288;SDS011;37372;52.294;5.152;2022-09-27T08:16:57;3.97;;;1.08;;
51288;SDS011;37372;52.294;5.152;2022-09-27T08:19:23;3.28;;;0.90;;
51288;SDS011;37372;52.294;5.152;2022-09-27T08:21:50;5.22;;;1.02;;
51288;SDS011;37372;52.294;5.152;2022-09-27T08:24:18;2.63;;;0.60;;
51288;SDS011;37372;52.294;5.152;2022-09-27T08:26:44;6.95;;;0.70;;
51288;SDS011;37372;52.294;5.152;2022-09-27T08:29:10;2.47;;;0.50;;
51288;SDS011;37372;52.294;5.152;2022-09-27T08:31:36;2.60;;;0.60;;
51288;SDS011;37372;52.294;5.152;2022-09-27T08:34:02;3.78;;;0.73;;
51288;SDS011;37372;52.294;5.152;2022-09-27T08:36:28;1.73;;;0.50;;
51288;SDS011;37372;52.294;5.152;2022-09-27T08:38:54;5.78;;;0.85;;
51288;SDS011;37372;52.294;5.152;2022-09-27T08:52:08;2.15;;;0.60;;
51288;SDS011;37372;52.294;5.152;2022-09-27T08:54:57;4.18;;;0.73;;
51288;SDS011;37372;52.294;5.152;2022-09-27T08:57:27;5.85;;;0.85;;
51288;SDS011;37372;52.294;5.152;2022-09-27T08:59:54;4.63;;;0.65;;
51288;SDS011;37372;52.294;5.152;2022-09-27T09:02:21;3.58;;;0.60;;
51288;SDS011;37372;52.294;5.152;2022-09-27T09:04:50;2.88;;;0.70;;
51288;SDS011;37372;52.294;5.152;2022-09-27T09:07:30;3.58;;;0.93;;
51288;SDS011;37372;52.294;5.152;2022-09-27T09:13:20;2.88;;;0.93;;
51288;SDS011;37372;52.294;5.152;2022-09-27T09:16:15;4.60;;;0.75;;
51288;SDS011;37372;52.294;5.152;2022-09-27T09:18:56;6.20;;;1.48;;
51288;SDS011;37372;52.294;5.152;2022-09-27T09:21:34;5.80;;;1.45;;
51288;SDS011;37372;52.294;5.152;2022-09-27T09:24:17;7.53;;;1.80;;
51288;SDS011;37372;52.294;5.152;2022-09-27T09:38:38;3.75;;;0.80;;
51288;SDS011;37372;52.294;5.152;2022-09-27T09:41:21;7.35;;;0.70;;
51288;SDS011;37372;52.294;5.152;2022-09-27T09:46:38;5.82;;;2.50;;
51288;SDS011;37372;52.294;5.152;2022-09-27T09:49:18;4.78;;;2.40;;
51288;SDS011;37372;52.294;5.152;2022-09-27T09:51:47;4.75;;;0.77;;
51288;SDS011;37372;52.294;5.152;2022-09-27T10:04:59;5.32;;;0.80;;
51288;SDS011;37372;52.294;5.152;2022-09-27T10:07:25;12.05;;;1.30;;
51288;SDS011;37372;52.294;5.152;2022-09-27T10:09:54;2.17;;;0.70;;
51288;SDS011;37372;52.294;5.152;2022-09-27T10:12:23;5.07;;;0.70;;
51288;SDS011;37372;52.294;5.152;2022-09-27T10:14:49;4.63;;;0.85;;
51288;SDS011;37372;52.294;5.152;2022-09-27T10:17:22;6.20;;;1.02;;
51288;SDS011;37372;52.294;5.152;2022-09-27T10:19:52;1.80;;;0.50;;
51288;SDS011;37372;52.294;5.152;2022-09-27T10:25:01;4.35;;;0.70;;
51288;SDS011;37372;52.294;5.152;2022-09-27T10:30:27;4.65;;;1.23;;
51288;SDS011;37372;52.294;5.152;2022-09-27T10:32:59;4.80;;;1.10;;
51288;SDS011;37372;52.294;5.152;2022-09-27T10:40:41;3.10;;;0.63;;
51288;SDS011;37372;52.294;5.152;2022-09-27T10:46:23;7.10;;;0.80;;
51288;SDS011;37372;52.294;5.152;2022-09-27T10:48:46;7.35;;;0.75;;
51288;SDS011;37372;52.294;5.152;2022-09-27T10:51:22;3.88;;;0.50;;
51288;SDS011;37372;52.294;5.152;2022-09-27T10:53:51;4.78;;;0.60;;
51288;SDS011;37372;52.294;5.152;2022-09-27T10:56:19;4.55;;;0.88;;
51288;SDS011;37372;52.294;5.152;2022-09-27T10:58:47;3.38;;;0.90;;
51288;SDS011;37372;52.294;5.152;2022-09-27T11:01:13;2.80;;;0.77;;
51288;SDS011;37372;52.294;5.152;2022-09-27T11:03:44;7.88;;;1.60;;
51288;SDS011;37372;52.294;5.152;2022-09-27T11:08:48;3.45;;;0.50;;
51288;SDS011;37372;52.294;5.152;2022-09-27T11:11:19;1.95;;;0.80;;
51288;SDS011;37372;52.294;5.152;2022-09-27T11:13:56;4.57;;;0.50;;
51288;SDS011;37372;52.294;5.152;2022-09-27T11:28:22;3.80;;;0.85;;
51288;SDS011;37372;52.294;5.152;2022-09-27T11:31:15;3.80;;;0.85;;
51288;SDS011;37372;52.294;5.152;2022-09-27T11:36:18;5.18;;;0.88;;
51288;SDS011;37372;52.294;5.152;2022-09-27T11:57:38;1.65;;;0.43;;
51288;SDS011;37372;52.294;5.152;2022-09-27T12:00:12;3.67;;;0.75;;
51288;SDS011;37372;52.294;5.152;2022-09-27T12:10:32;2.42;;;0.55;;
51288;SDS011;37372;52.294;5.152;2022-09-27T12:12:59;2.60;;;0.60;;
51288;SDS011;37372;52.294;5.152;2022-09-27T12:15:26;2.30;;;0.60;;
51288;SDS011;37372;52.294;5.152;2022-09-27T12:18:06;3.60;;;0.60;;
51288;SDS011;37372;52.294;5.152;2022-09-27T12:20:34;1.52;;;0.40;;
51288;SDS011;37372;52.294;5.152;2022-09-27T12:25:36;2.60;;;0.47;;
51288;SDS011;37372;52.294;5.152;2022-09-27T12:28:13;3.47;;;0.90;;
51288;SDS011;37372;52.294;5.152;2022-09-27T12:30:47;4.13;;;0.60;;
51288;SDS011;37372;52.294;5.152;2022-09-27T12:33:31;3.75;;;1.05;;
51288;SDS011;37372;52.294;5.152;2022-09-27T12:36:04;4.32;;;0.70;;
51288;SDS011;37372;52.294;5.152;2022-09-27T12:38:38;2.78;;;0.80;;
51288;SDS011;37372;52.294;5.152;2022-09-27T12:41:25;7.57;;;1.10;;
51288;SDS011;37372;52.294;5.152;2022-09-27T12:43:55;3.83;;;0.68;;
51288;SDS011;37372;52.294;5.152;2022-09-27T12:46:25;3.17;;;0.65;;
51288;SDS011;37372;52.294;5.152;2022-09-27T12:52:08;5.57;;;0.80;;
51288;SDS011;37372;52.294;5.152;2022-09-27T12:54:48;3.63;;;1.48;;
51288;SDS011;37372;52.294;5.152;2022-09-27T13:00:32;1.85;;;1.00;;
51288;SDS011;37372;52.294;5.152;2022-09-27T13:03:12;5.85;;;1.02;;
51288;SDS011;37372;52.294;5.152;2022-09-27T13:12:00;4.18;;;0.75;;
51288;SDS011;37372;52.294;5.152;2022-09-27T13:14:34;7.32;;;1.20;;
51288;SDS011;37372;52.294;5.152;2022-09-27T13:17:30;3.35;;;1.25;;
51288;SDS011;37372;52.294;5.152;2022-09-27T13:20:38;4.03;;;1.38;;
51288;SDS011;37372;52.294;5.152;2022-09-27T13:22:57;5.10;;;1.00;;
51288;SDS011;37372;52.294;5.152;2022-09-27T13:28:33;2.47;;;0.93;;
51288;SDS011;37372;52.294;5.152;2022-09-27T13:38:31;4.93;;;1.05;;
51288;SDS011;37372;52.294;5.152;2022-09-27T13:41:18;3.58;;;0.80;;
51288;SDS011;37372;52.294;5.152;2022-09-27T13:43:46;3.70;;;1.20;;
51288;SDS011;37372;52.294;5.152;2022-09-27T13:46:29;3.33;;;0.60;;
51288;SDS011;37372;52.294;5.152;2022-09-27T13:48:58;3.53;;;0.88;;
51288;SDS011;37372;52.294;5.152;2022-09-27T13:51:39;3.20;;;0.63;;
51288;SDS011;37372;52.294;5.152;2022-09-27T13:56:59;2.78;;;0.70;;
51288;SDS011;37372;52.294;5.152;2022-09-27T13:59:36;1.60;;;1.15;;
51288;SDS011;37372;52.294;5.152;2022-09-27T14:04:46;3.78;;;0.80;;
51288;SDS011;37372;52.294;5.152;2022-09-27T14:07:16;2.17;;;0.68;;
51288;SDS011;37372;52.294;5.152;2022-09-27T14:09:47;4.68;;;1.20;;
51288;SDS011;37372;52.294;5.152;2022-09-27T14:12:17;5.20;;;2.05;;
51288;SDS011;37372;52.294;5.152;2022-09-27T14:14:44;3.38;;;0.70;;
51288;SDS011;37372;52.294;5.152;2022-09-27T14:17:19;2.63;;;0.70;;
51288;SDS011;37372;52.294;5.152;2022-09-27T14:23:05;2.30;;;0.73;;
51288;SDS011;37372;52.294;5.152;2022-09-27T14:25:43;5.18;;;0.82;;
51288;SDS011;37372;52.294;5.152;2022-09-27T14:28:44;2.17;;;0.52;;
51288;SDS011;37372;52.294;5.152;2022-09-27T14:31:15;4.75;;;1.85;;
51288;SDS011;37372;52.294;5.152;2022-09-27T14:33:46;4.38;;;1.08;;
51288;SDS011;37372;52.294;5.152;2022-09-27T14:39:19;4.97;;;0.80;;
51288;SDS011;37372;52.294;5.152;2022-09-27T14:41:47;1.05;;;0.50;;
51288;SDS011;37372;52.294;5.152;2022-09-27T14:44:13;1.88;;;0.60;;
51288;SDS011;37372;52.294;5.152;2022-09-27T14:46:40;6.32;;;0.80;;
51288;SDS011;37372;52.294;5.152;2022-09-27T14:49:22;6.25;;;0.70;;
51288;SDS011;37372;52.294;5.152;2022-09-27T14:51:49;5.05;;;0.70;;
51288;SDS011;37372;52.294;5.152;2022-09-27T14:54:19;2.22;;;0.32;;
51288;SDS011;37372;52.294;5.152;2022-09-27T14:56:51;3.15;;;0.73;;
51288;SDS011;37372;52.294;5.152;2022-09-27T14:59:29;4.25;;;0.82;;
51288;SDS011;37372;52.294;5.152;2022-09-27T15:02:00;1.75;;;0.65;;
51288;SDS011;37372;52.294;5.152;2022-09-27T15:04:29;1.50;;;0.70;;
51288;SDS011;37372;52.294;5.152;2022-09-27T15:06:59;4.55;;;1.48;;
51288;SDS011;37372;52.294;5.152;2022-09-27T15:09:26;3.15;;;0.70;;
51288;SDS011;37372;52.294;5.152;2022-09-27T15:11:53;3.90;;;0.70;;
51288;SDS011;37372;52.294;5.152;2022-09-27T15:14:24;3.22;;;0.70;;
51288;SDS011;37372;52.294;5.152;2022-09-27T15:16:52;3.00;;;0.85;;
51288;SDS011;37372;52.294;5.152;2022-09-27T15:21:51;4.88;;;1.33;;
51288;SDS011;37372;52.294;5.152;2022-09-27T15:24:36;4.03;;;1.38;;
51288;SDS011;37372;52.294;5.152;2022-09-27T15:27:04;2.70;;;1.20;;
51288;SDS011;37372;52.294;5.152;2022-09-27T15:29:37;3.30;;;1.42;;
51288;SDS011;37372;52.294;5.152;2022-09-27T15:32:03;8.07;;;1.73;;
51288;SDS011;37372;52.294;5.152;2022-09-27T15:34:31;5.43;;;2.42;;
51288;SDS011;37372;52.294;5.152;2022-09-27T15:37:01;10.48;;;2.63;;
51288;SDS011;37372;52.294;5.152;2022-09-27T15:39:30;7.97;;;2.13;;
51288;SDS011;37372;52.294;5.152;2022-09-27T15:44:42;3.40;;;1.70;;
51288;SDS011;37372;52.294;5.152;2022-09-27T15:49:59;3.90;;;2.05;;
51288;SDS011;37372;52.294;5.152;2022-09-27T15:52:50;4.78;;;1.85;;
51288;SDS011;37372;52.294;5.152;2022-09-27T15:55:28;3.53;;;1.50;;
51288;SDS011;37372;52.294;5.152;2022-09-27T15:57:58;3.40;;;1.80;;
51288;SDS011;37372;52.294;5.152;2022-09-27T16:00:26;4.60;;;1.95;;
51288;SDS011;37372;52.294;5.152;2022-09-27T16:02:52;6.93;;;2.10;;
51288;SDS011;37372;52.294;5.152;2022-09-27T16:05:18;11.43;;;2.58;;
51288;SDS011;37372;52.294;5.152;2022-09-27T16:07:43;6.88;;;2.17;;
51288;SDS011;37372;52.294;5.152;2022-09-27T16:10:12;4.90;;;1.92;;
51288;SDS011;37372;52.294;5.152;2022-09-27T16:12:39;4.28;;;2.47;;
51288;SDS011;37372;52.294;5.152;2022-09-27T16:15:04;5.38;;;2.10;;
51288;SDS011;37372;52.294;5.152;2022-09-27T16:17:30;5.13;;;2.70;;
51288;SDS011;37372;52.294;5.152;2022-09-27T16:19:56;5.70;;;2.47;;
51288;SDS011;37372;52.294;5.152;2022-09-27T16:22:21;5.30;;;3.15;;
51288;SDS011;37372;52.294;5.152;2022-09-27T16:24:47;6.47;;;3.45;;
51288;SDS011;37372;52.294;5.152;2022-09-27T16:27:21;6.38;;;3.33;;
51288;SDS011;37372;52.294;5.152;2022-09-27T16:29:51;7.03;;;3.58;;
51288;SDS011;37372;52.294;5.152;2022-09-27T16:32:21;6.82;;;2.85;;
51288;SDS011;37372;52.294;5.152;2022-09-27T16:34:47;5.45;;;1.98;;
51288;SDS011;37372;52.294;5.152;2022-09-27T16:37:12;5.22;;;1.05;;
51288;SDS011;37372;52.294;5.152;2022-09-27T16:39:38;4.93;;;1.10;;
51288;SDS011;37372;52.294;5.152;2022-09-27T16:42:04;4.60;;;0.90;;
51288;SDS011;37372;52.294;5.152;2022-09-27T16:44:31;7.15;;;1.38;;
51288;SDS011;37372;52.294;5.152;2022-09-27T16:47:00;6.28;;;0.85;;
51288;SDS011;37372;52.294;5.152;2022-09-27T16:49:26;3.20;;;0.80;;
51288;SDS011;37372;52.294;5.152;2022-09-27T16:52:10;3.38;;;0.82;;
51288;SDS011;37372;52.294;5.152;2022-09-27T16:54:35;3.17;;;0.70;;
51288;SDS011;37372;52.294;5.152;2022-09-27T16:57:01;3.15;;;0.68;;
51288;SDS011;37372;52.294;5.152;2022-09-27T16:59:26;1.67;;;0.77;;
51288;SDS011;37372;52.294;5.152;2022-09-27T17:01:52;2.67;;;0.73;;
51288;SDS011;37372;52.294;5.152;2022-09-27T17:04:21;2.28;;;0.70;;
51288;SDS011;37372;52.294;5.152;2022-09-27T17:06:47;4.00;;;0.85;;
51288;SDS011;37372;52.294;5.152;2022-09-27T17:09:12;4.75;;;0.80;;
51288;SDS011;37372;52.294;5.152;2022-09-27T17:11:38;4.05;;;0.80;;
51288;SDS011;37372;52.294;5.152;2022-09-27T17:14:03;3.13;;;1.00;;
51288;SDS011;37372;52.294;5.152;2022-09-27T17:16:28;5.15;;;1.40;;
51288;SDS011;37372;52.294;5.152;2022-09-27T17:18:54;7.53;;;2.58;;
51288;SDS011;37372;52.294;5.152;2022-09-27T17:21:20;11.73;;;4.10;;
51288;SDS011;37372;52.294;5.152;2022-09-27T17:23:46;14.73;;;5.70;;
51288;SDS011;37372;52.294;5.152;2022-09-27T17:26:18;13.30;;;4.80;;
51288;SDS011;37372;52.294;5.152;2022-09-27T17:28:45;13.60;;;7.03;;
51288;SDS011;37372;52.294;5.152;2022-09-27T17:31:12;11.52;;;6.20;;
51288;SDS011;37372;52.294;5.152;2022-09-27T17:33:43;14.07;;;5.60;;
51288;SDS011;37372;52.294;5.152;2022-09-27T17:36:11;12.82;;;6.47;;
51288;SDS011;37372;52.294;5.152;2022-09-27T17:38:38;14.38;;;7.40;;
51288;SDS011;37372;52.294;5.152;2022-09-27T17:41:09;15.40;;;9.02;;
51288;SDS011;37372;52.294;5.152;2022-09-27T17:43:37;16.50;;;9.25;;
51288;SDS011;37372;52.294;5.152;2022-09-27T17:46:08;16.77;;;9.43;;
51288;SDS011;37372;52.294;5.152;2022-09-27T17:48:34;15.00;;;10.05;;
51288;SDS011;37372;52.294;5.152;2022-09-27T17:53:45;13.95;;;7.97;;
51288;SDS011;37372;52.294;5.152;2022-09-27T17:56:11;17.25;;;7.32;;
51288;SDS011;37372;52.294;5.152;2022-09-27T17:58:37;9.65;;;5.75;;
51288;SDS011;37372;52.294;5.152;2022-09-27T18:01:05;14.57;;;6.53;;
51288;SDS011;37372;52.294;5.152;2022-09-27T18:03:32;9.95;;;5.28;;
51288;SDS011;37372;52.294;5.152;2022-09-27T18:05:58;11.88;;;5.38;;
51288;SDS011;37372;52.294;5.152;2022-09-27T18:08:29;8.60;;;5.53;;
51288;SDS011;37372;52.294;5.152;2022-09-27T18:10:56;12.45;;;6.80;;
51288;SDS011;37372;52.294;5.152;2022-09-27T18:13:26;17.52;;;7.50;;